| time (UTC) | temp F | wind direction | speed MPH | gust MPH | rain 1hr in | rain 24hr in | rain mn in | humidity % | barometer mb |
| 20260510094524 | 65 | 259 | 0.0 | 0.0 | 0.00 | 0.00 | 0.00 | 84 | 1013.2 |
| 20260510093021 | 64 | 259 | 0.0 | 0.0 | 0.00 | 0.00 | 0.00 | 86 | 1013.4 |
| 20260510091541 | 64 | 259 | 0.0 | 0.0 | 0.00 | 0.00 | 0.00 | 85 | 1013.7 |
| 20260510090018 | 63 | 259 | 0.0 | 0.0 | 0.00 | 0.00 | 0.00 | 87 | 1014.1 |
| 20260510084517 | 62 | 259 | 0.0 | 0.0 | 0.00 | 0.00 | 0.00 | 87 | 1014.2 |
| 20260510083016 | 62 | 259 | 0.0 | 0.0 | 0.00 | 0.00 | 0.00 | 88 | 1014.4 |
| 20260510081530 | 62 | 259 | 0.0 | 0.0 | 0.00 | 0.00 | 0.00 | 88 | 1014.6 |
| 20260510080015 | 63 | 259 | 0.0 | 0.0 | 0.00 | 0.00 | 0.00 | 87 | 1014.7 |
| 20260510074515 | 63 | 259 | 0.0 | 0.0 | 0.00 | 0.00 | 0.00 | 87 | 1014.7 |
| 20260510073022 | 62 | 259 | 0.0 | 0.0 | 0.00 | 0.00 | 0.00 | 87 | 1014.9 |
| 20260510071515 | 62 | 114 | 0.0 | 0.0 | 0.00 | 0.00 | 0.00 | 89 | 1014.7 |
| 20260510070011 | 61 | 114 | 0.0 | 0.0 | 0.00 | 0.00 | 0.00 | 90 | 1014.9 |
| 20260510064527 | 60 | 114 | 0.0 | 0.0 | 0.00 | 0.00 | 0.00 | 90 | 1015.0 |
| 20260510063013 | 59 | 114 | 0.0 | 0.0 | 0.00 | 0.00 | 0.00 | 91 | 1015.0 |
| 20260510061505 | 59 | 114 | 0.0 | 0.0 | 0.00 | 0.00 | 0.00 | 92 | 1015.0 |
| 20260510060000 | 59 | 114 | 0.0 | 0.0 | 0.00 | 0.00 | 0.00 | 91 | 1014.8 |
| 20260510054603 | 59 | 114 | 0.0 | 0.0 | 0.00 | 0.00 | 0.00 | 91 | 1014.6 |
| 20260510053056 | 59 | 113 | 0.0 | 0.0 | 0.00 | 0.00 | 0.00 | 92 | 1014.4 |
| 20260510051607 | 59 | 113 | 0.0 | 0.0 | 0.00 | 0.00 | 0.00 | 91 | 1014.2 |
| 20260510050055 | 59 | 113 | 0.0 | 0.0 | 0.00 | 0.00 | 0.00 | 92 | 1014.1 |
| 20260510044602 | 58 | 113 | 0.0 | 0.0 | 0.00 | 0.00 | 0.00 | 92 | 1013.9 |
| 20260510043051 | 58 | 113 | 0.0 | 0.0 | 0.00 | 0.00 | 0.00 | 92 | 1013.7 |
| 20260510041602 | 57 | 113 | 0.0 | 0.0 | 0.00 | 0.00 | 0.00 | 92 | 1013.6 |
| 20260510040047 | 57 | 113 | 0.0 | 0.0 | 0.00 | 0.00 | 0.00 | 92 | 1013.3 |
| 20260510034547 | 56 | 113 | 0.0 | 0.0 | 0.00 | 0.00 | 0.00 | 92 | 1013.1 |
| 20260510033044 | 56 | 113 | 0.0 | 0.0 | 0.00 | 0.00 | 0.00 | 91 | 1012.9 |
| 20260510031549 | 56 | 113 | 0.0 | 0.0 | 0.00 | 0.00 | 0.00 | 91 | 1012.7 |
| 20260510030047 | 57 | 113 | 0.0 | 0.0 | 0.00 | 0.00 | 0.00 | 90 | 1012.6 |
| 20260510024547 | 57 | 113 | 0.0 | 7.0 | 0.00 | 0.00 | 0.00 | 91 | 1012.3 |
| 20260510023037 | 57 | 117 | 1.0 | 6.0 | 0.00 | 0.00 | 0.00 | 91 | 1012.4 |
| 20260510021538 | 57 | 117 | 0.0 | 0.0 | 0.00 | 0.00 | 0.00 | 90 | 1012.3 |
| 20260510020036 | 57 | 117 | 0.0 | 0.0 | 0.00 | 0.00 | 0.00 | 90 | 1012.0 |
| 20260510014539 | 57 | 117 | 2.0 | 6.0 | 0.00 | 0.00 | 0.00 | 90 | 1011.8 |
| 20260510013042 | 57 | 117 | 0.0 | 0.0 | 0.00 | 0.00 | 0.00 | 90 | 1011.8 |
| 20260510011534 | 57 | 117 | 0.0 | 0.0 | 0.00 | 0.00 | 0.00 | 90 | 1011.7 |
| 20260510010032 | 57 | 117 | 0.0 | 6.0 | 0.00 | 0.00 | 0.00 | 89 | 1011.8 |
| 20260510004531 | 58 | 117 | 0.0 | 4.0 | 0.00 | 0.00 | 0.00 | 89 | 1011.8 |
| 20260510003044 | 58 | 115 | 0.0 | 0.0 | 0.00 | 0.00 | 0.00 | 89 | 1011.9 |
| 20260510001529 | 58 | 115 | 0.0 | 8.0 | 0.00 | 0.00 | 0.00 | 89 | 1011.6 |
| 20260510000030 | 58 | 48 | 0.0 | 0.0 | 0.00 | 0.00 | 0.00 | 89 | 1011.3 |
| 20260509234536 | 58 | 327 | 0.0 | 6.0 | 0.00 | 0.00 | 0.00 | 89 | 1011.4 |
| 20260509233038 | 58 | 120 | 0.0 | 0.0 | 0.00 | 0.00 | 0.00 | 88 | 1011.3 |
| 20260509231528 | 59 | 120 | 0.0 | 13.0 | 0.00 | 0.00 | 0.00 | 88 | 1011.1 |
| 20260509230025 | 59 | 89 | 6.0 | 12.0 | 0.00 | 0.00 | 0.00 | 88 | 1010.9 |
| 20260509224524 | 59 | 120 | 6.0 | 13.0 | 0.00 | 0.00 | 0.00 | 88 | 1011.2 |
| 20260509223019 | 59 | 126 | 6.0 | 18.0 | 0.00 | 0.00 | 0.00 | 88 | 1011.5 |
| 20260509221517 | 59 | 126 | 7.0 | 15.0 | 0.00 | 0.00 | 0.00 | 88 | 1011.7 |
| 20260509220026 | 59 | 114 | 8.0 | 15.0 | 0.00 | 0.00 | 0.00 | 88 | 1011.9 |
| 20260509214515 | 59 | 111 | 7.0 | 16.0 | 0.00 | 0.00 | 0.00 | 89 | 1011.7 |
| 20260509213014 | 59 | 109 | 9.0 | 17.0 | 0.00 | 0.00 | 0.00 | 89 | 1011.8 |
| 20260509211511 | 59 | 137 | 8.0 | 22.0 | 0.00 | 0.00 | 0.00 | 88 | 1012.0 |
| 20260509210009 | 59 | 113 | 7.0 | 17.0 | 0.00 | 0.00 | 0.00 | 88 | 1012.1 |
| 20260509204508 | 59 | 104 | 9.0 | 18.0 | 0.00 | 0.00 | 0.00 | 89 | 1012.1 |
| 20260509203006 | 59 | 107 | 8.0 | 19.0 | 0.00 | 0.00 | 0.00 | 90 | 1012.4 |
| 20260509201505 | 59 | 130 | 7.0 | 17.0 | 0.00 | 0.00 | 0.00 | 89 | 1012.5 |
| 20260509200004 | 60 | 115 | 8.0 | 16.0 | 0.00 | 0.00 | 0.00 | 89 | 1012.4 |
| 20260509194504 | 60 | 113 | 9.0 | 17.0 | 0.00 | 0.00 | 0.00 | 89 | 1012.5 |
| 20260509193002 | 60 | 128 | 7.0 | 16.0 | 0.00 | 0.00 | 0.00 | 89 | 1012.5 |
| 20260509191601 | 60 | 87 | 11.0 | 17.0 | 0.00 | 0.00 | 0.00 | 90 | 1012.7 |
| 20260509190111 | 59 | 100 | 7.0 | 17.0 | 0.00 | 0.00 | 0.00 | 91 | 1012.7 |
| 20260509184605 | 59 | 79 | 8.0 | 16.0 | 0.00 | 0.00 | 0.00 | 91 | 1012.6 |
| 20260509183056 | 60 | 124 | 7.0 | 19.0 | 0.00 | 0.00 | 0.00 | 91 | 1012.3 |
| 20260509181554 | 60 | 111 | 7.0 | 18.0 | 0.00 | 0.00 | 0.00 | 90 | 1012.1 |
| 20260509174555 | 61 | 76 | 0.0 | 7.0 | 0.00 | 0.00 | 0.00 | 89 | 1012.0 |
| 20260509173057 | 61 | 95 | 4.0 | 13.0 | 0.00 | 0.00 | 0.00 | 89 | 1011.7 |
| 20260509171552 | 61 | 98 | 4.0 | 15.0 | 0.00 | 0.00 | 0.00 | 89 | 1011.4 |
| 20260509170101 | 60 | 107 | 6.0 | 15.0 | 0.00 | 0.00 | 0.00 | 89 | 1010.8 |
| 20260509164551 | 60 | 103 | 7.0 | 15.0 | 0.00 | 0.00 | 0.00 | 90 | 1010.9 |
| 20260509163101 | 60 | 113 | 9.0 | 20.0 | 0.00 | 0.00 | 0.00 | 89 | 1010.5 |
| 20260509161553 | 60 | 126 | 8.0 | 18.0 | 0.00 | 0.00 | 0.00 | 90 | 1010.4 |
| 20260509160046 | 59 | 104 | 10.0 | 23.0 | 0.00 | 0.00 | 0.00 | 91 | 1010.3 |
| 20260509154544 | 60 | 117 | 10.0 | 20.0 | 0.00 | 0.00 | 0.00 | 92 | 1010.1 |
| 20260509153045 | 61 | 112 | 2.0 | 9.0 | 0.00 | 0.00 | 0.00 | 92 | 1010.5 |
| 20260509151542 | 62 | 110 | 0.0 | 0.0 | 0.00 | 0.00 | 0.00 | 92 | 1010.8 |
| 20260509150045 | 62 | 110 | 0.0 | 0.0 | 0.00 | 0.00 | 0.00 | 91 | 1010.5 |
| 20260509144545 | 62 | 110 | 0.0 | 0.0 | 0.00 | 0.00 | 0.00 | 91 | 1010.3 |
| 20260509143047 | 61 | 111 | 2.0 | 10.0 | 0.00 | 0.00 | 0.00 | 92 | 1010.1 |
| 20260509141640 | 61 | 103 | 4.0 | 13.0 | 0.00 | 0.00 | 0.00 | 92 | 1009.4 |
| 20260509140042 | 61 | 106 | 6.0 | 16.0 | 0.00 | 0.00 | 0.00 | 92 | 1009.4 |
| 20260509134539 | 60 | 117 | 1.0 | 9.0 | 0.00 | 0.00 | 0.00 | 92 | 1009.6 |
| 20260509133040 | 61 | 119 | 0.0 | 6.0 | 0.00 | 0.00 | 0.00 | 92 | 1009.8 |
| 20260509131537 | 61 | 121 | 1.0 | 8.0 | 0.00 | 0.00 | 0.00 | 92 | 1009.4 |
| 20260509130038 | 61 | 47 | 0.0 | 0.0 | 0.00 | 0.00 | 0.00 | 92 | 1009.3 |
| 20260509124543 | 61 | 47 | 0.0 | 0.0 | 0.00 | 0.00 | 0.00 | 93 | 1009.4 |
| 20260509123034 | 59 | 47 | 0.0 | 3.0 | 0.00 | 0.00 | 0.00 | 93 | 1009.5 |
| 20260509121541 | 58 | 44 | 2.0 | 11.0 | 0.00 | 0.00 | 0.00 | 92 | 1009.9 |
| 20260509120032 | 59 | 66 | 0.0 | 4.0 | 0.00 | 0.00 | 0.00 | 92 | 1009.8 |
| 20260509114547 | 59 | 322 | 2.0 | 15.0 | 0.00 | 0.00 | 0.00 | 88 | 1010.1 |
| 20260509113023 | 65 | 190 | 0.0 | 0.0 | 0.00 | 0.00 | 0.00 | 88 | 1010.1 |
| 20260509111519 | 66 | 190 | 0.0 | 1.0 | 0.00 | 0.00 | 0.00 | 86 | 1010.5 |
| 20260509110017 | 66 | 190 | 1.0 | 3.0 | 0.00 | 0.00 | 0.00 | 83 | 1010.6 |
| 20260509104520 | 66 | 190 | 0.0 | 8.0 | 0.00 | 0.00 | 0.00 | 84 | 1011.0 |
| 20260509103012 | 66 | 190 | 1.0 | 5.0 | 0.00 | 0.00 | 0.00 | 83 | 1011.5 |
| 20260509101513 | 66 | 190 | 0.0 | 5.0 | 0.00 | 0.00 | 0.00 | 82 | 1011.8 |
| 20260509100006 | 68 | 190 | 0.0 | 6.0 | 0.00 | 0.00 | 0.00 | 80 | 1012.3 |